Mini Explorer — FGD5276 — position and weather

sailwx.info

Track history (hours):
 
Tides and Currents Weather Stations Pressure Air Temp Water Temp Dewpoint Dewpoint Depression Visibility Wind Speed Wind Dir Waves Ship Positions

Mini Explorer

Last reported at 2017-Apr-29 08:02 UTC. Time now 2017-Apr-30 03:31 UTC.
Position N 47°34' W 003°01'.

Length 6 m.

Type: Sailing vessel. MMSI: 227568370.

Date/timePositionNaut miles runAvg speedWind from/ knotsBaromVisibWave heightAir tempDewpointWater temp
2017-Apr-29 08:02N 47°34' W 003°01'1 5.7
2017-Apr-29 07:54N 47°33' W 003°00'8 7.0
2017-Apr-29 06:45N 47°27' W 002°53'2 6.9
2017-Apr-29 06:27N 47°25' W 002°51'3 6.4
2017-Apr-29 05:57N 47°23' W 002°49'  
2017-Apr-24 15:42N 47°15' W 002°46'2 5.7
2017-Apr-24 15:24N 47°15' W 002°49'2 5.0
2017-Apr-24 14:54N 47°16' W 002°52'3 5.4
2017-Apr-24 14:24N 47°18' W 002°55'4 4.6
2017-Apr-24 13:30N 47°21' W 002°58'2 4.1
2017-Apr-24 13:00N 47°23' W 003°00'8 3.5
2017-Apr-24 10:46N 47°28' W 003°09'1 2.3
2017-Apr-24 10:24N 47°29' W 003°09'1 3.6
2017-Apr-24 10:00N 47°29' W 003°11'1 1.3
2017-Apr-24 09:30N 47°30' W 003°12'1 2.1
2017-Apr-24 09:00N 47°30' W 003°13'2 3.4
2017-Apr-24 08:30N 47°32' W 003°15'2 3.7
2017-Apr-24 08:01N 47°33' W 003°16'3 5.5
2017-Apr-24 07:31N 47°35' W 003°19'3 5.8
2017-Apr-24 07:00N 47°37' W 003°22'5 2.4
2017-Apr-24 04:46N 47°37' W 003°30'2 7.4
2017-Apr-24 04:28N 47°35' W 003°28'3 7.3
2017-Apr-24 04:00N 47°32' W 003°25'3 6.9
2017-Apr-24 03:30N 47°30' W 003°22'3 6.4
2017-Apr-24 02:59N 47°28' W 003°18'13 6.6
2017-Apr-24 01:03N 47°20' W 003°03'1 6.3
2017-Apr-24 00:51N 47°19' W 003°01'2 6.7
2017-Apr-24 00:30N 47°17' W 002°59'3 6.4
2017-Apr-24 00:00N 47°14' W 002°57'59 6.4
2017-Apr-23 14:50N 46°32' W 001°58'6 7.0
2017-Apr-23 14:00N 46°29' W 001°50'1 2.9
2017-Apr-23 13:30N 46°28' W 001°48'2 3.1
2017-Apr-23 13:00N 46°28' W 001°50'3 5.0
2017-Apr-23 12:31N 46°28' W 001°54'84 5.1
2017-Apr-22 19:57N 47°29' W 003°18'16 5.8
2017-Apr-22 17:15N 47°26' W 002°55'1 4.7
2017-Apr-22 17:00N 47°25' W 002°55'2 3.1
2017-Apr-22 16:30N 47°24' W 002°53'1 2.6
2017-Apr-22 15:57N 47°23' W 002°51'2 4.5
2017-Apr-22 15:27N 47°22' W 002°48'  
Track history (hours):
 
Tides and Currents Weather Stations Pressure Air Temp Water Temp Dewpoint Dewpoint Depression Visibility Wind Speed Wind Dir Waves Ship Positions

Mini Explorer

Last reported at 2017-Apr-29 08:02 UTC. Time now 2017-Apr-30 03:31 UTC.
Position N 47°34' W 003°01'.

Length 6 m.

Type: Sailing vessel. MMSI: 227568370.

Date/timePositionNaut miles runAvg speedWind from/ knotsBaromVisibWave heightAir tempDewpointWater temp
2017-Apr-29 08:02N 47°34' W 003°01'1 5.7
2017-Apr-29 07:54N 47°33' W 003°00'8 7.0
2017-Apr-29 06:45N 47°27' W 002°53'2 6.9
2017-Apr-29 06:27N 47°25' W 002°51'3 6.4
2017-Apr-29 05:57N 47°23' W 002°49'  
2017-Apr-24 15:42N 47°15' W 002°46'2 5.7
2017-Apr-24 15:24N 47°15' W 002°49'2 5.0
2017-Apr-24 14:54N 47°16' W 002°52'3 5.4
2017-Apr-24 14:24N 47°18' W 002°55'4 4.6
2017-Apr-24 13:30N 47°21' W 002°58'2 4.1
2017-Apr-24 13:00N 47°23' W 003°00'8 3.5
2017-Apr-24 10:46N 47°28' W 003°09'1 2.3
2017-Apr-24 10:24N 47°29' W 003°09'1 3.6
2017-Apr-24 10:00N 47°29' W 003°11'1 1.3
2017-Apr-24 09:30N 47°30' W 003°12'1 2.1
2017-Apr-24 09:00N 47°30' W 003°13'2 3.4
2017-Apr-24 08:30N 47°32' W 003°15'2 3.7
2017-Apr-24 08:01N 47°33' W 003°16'3 5.5
2017-Apr-24 07:31N 47°35' W 003°19'3 5.8
2017-Apr-24 07:00N 47°37' W 003°22'5 2.4
2017-Apr-24 04:46N 47°37' W 003°30'2 7.4
2017-Apr-24 04:28N 47°35' W 003°28'3 7.3
2017-Apr-24 04:00N 47°32' W 003°25'3 6.9
2017-Apr-24 03:30N 47°30' W 003°22'3 6.4
2017-Apr-24 02:59N 47°28' W 003°18'13 6.6
2017-Apr-24 01:03N 47°20' W 003°03'1 6.3
2017-Apr-24 00:51N 47°19' W 003°01'2 6.7
2017-Apr-24 00:30N 47°17' W 002°59'3 6.4
2017-Apr-24 00:00N 47°14' W 002°57'59 6.4
2017-Apr-23 14:50N 46°32' W 001°58'6 7.0
2017-Apr-23 14:00N 46°29' W 001°50'1 2.9
2017-Apr-23 13:30N 46°28' W 001°48'2 3.1
2017-Apr-23 13:00N 46°28' W 001°50'3 5.0
2017-Apr-23 12:31N 46°28' W 001°54'84 5.1
2017-Apr-22 19:57N 47°29' W 003°18'16 5.8
2017-Apr-22 17:15N 47°26' W 002°55'1 4.7
2017-Apr-22 17:00N 47°25' W 002°55'2 3.1
2017-Apr-22 16:30N 47°24' W 002°53'1 2.6
2017-Apr-22 15:57N 47°23' W 002°51'2 4.5
2017-Apr-22 15:27N 47°22' W 002°48'  

Dump ship's entire track history